createdAt,value
2022-10-11T00:00:50.000Z,1.30
2022-10-11T00:10:50.000Z,2.00
2022-10-11T00:20:50.000Z,1.50
2022-10-11T00:30:50.000Z,1.40
2022-10-11T00:40:50.000Z,0.70
2022-10-11T00:50:50.000Z,1.30
2022-10-11T01:10:49.000Z,0.80
2022-10-11T01:20:49.000Z,1.10
2022-10-11T01:30:49.000Z,1.20
2022-10-11T01:40:49.000Z,1.00
2022-10-11T01:50:49.000Z,0.70
2022-10-11T02:00:49.000Z,1.00
2022-10-11T02:10:48.000Z,0.60
2022-10-11T02:20:48.000Z,0.60
2022-10-11T02:40:48.000Z,1.20
2022-10-11T02:50:48.000Z,1.40
2022-10-11T03:00:48.000Z,1.20
2022-10-11T03:10:48.000Z,1.20
2022-10-11T03:20:47.000Z,1.20
2022-10-11T03:30:47.000Z,0.80
2022-10-11T03:40:47.000Z,1.40
2022-10-11T03:50:47.000Z,1.80
2022-10-11T04:10:47.000Z,1.30
2022-10-11T04:20:47.000Z,1.90
2022-10-11T04:30:47.000Z,1.70
2022-10-11T04:40:46.000Z,2.20
2022-10-11T04:50:46.000Z,1.50
2022-10-11T05:00:46.000Z,2.20
2022-10-11T05:10:46.000Z,1.00
2022-10-11T05:20:46.000Z,1.50
2022-10-11T05:40:46.000Z,1.60
2022-10-11T05:50:45.000Z,2.50
2022-10-11T06:00:45.000Z,1.80
2022-10-11T06:10:45.000Z,4.40
2022-10-11T06:20:45.000Z,3.40
2022-10-11T06:30:45.000Z,2.00
2022-10-11T06:40:45.000Z,1.90
2022-10-11T06:40:45.000Z,1.90
2022-10-11T06:50:45.000Z,2.40
2022-10-11T07:10:44.000Z,1.70
2022-10-11T07:20:44.000Z,1.50
2022-10-11T07:30:44.000Z,1.90
2022-10-11T07:40:44.000Z,1.60
2022-10-11T07:50:44.000Z,1.40
2022-10-11T08:00:44.000Z,0.80
2022-10-11T08:10:44.000Z,1.00
2022-10-11T08:20:43.000Z,1.00
2022-10-11T08:40:43.000Z,0.70
2022-10-11T08:50:43.000Z,0.50
2022-10-11T09:00:43.000Z,0.80
2022-10-11T09:10:43.000Z,1.20
2022-10-11T09:20:43.000Z,0.80
2022-10-11T09:30:42.000Z,0.70
2022-10-11T09:40:42.000Z,0.80
2022-10-11T09:50:42.000Z,0.40
2022-10-11T10:10:42.000Z,0.80
2022-10-11T10:20:42.000Z,1.00
2022-10-11T10:30:42.000Z,0.50
2022-10-11T10:40:42.000Z,0.40
2022-10-11T10:50:41.000Z,0.60
2022-10-11T11:00:41.000Z,0.60
2022-10-11T11:10:41.000Z,0.70
2022-10-11T11:20:41.000Z,0.50
2022-10-11T11:40:41.000Z,0.30
2022-10-11T11:50:41.000Z,0.60
2022-10-11T12:00:40.000Z,1.10
2022-10-11T12:10:40.000Z,0.50
2022-10-11T12:20:40.000Z,0.40
2022-10-11T12:30:40.000Z,0.90
2022-10-11T12:40:40.000Z,1.00
2022-10-11T12:50:40.000Z,0.50
2022-10-11T13:10:39.000Z,0.60
2022-10-11T13:20:39.000Z,0.70
2022-10-11T13:30:39.000Z,0.40
2022-10-11T13:40:39.000Z,0.50
2022-10-11T13:50:39.000Z,0.60
2022-10-11T14:00:39.000Z,0.50
2022-10-11T14:10:39.000Z,0.70
2022-10-11T14:20:39.000Z,0.60
2022-10-11T14:40:38.000Z,0.60
2022-10-11T14:50:38.000Z,0.70
2022-10-11T15:00:38.000Z,0.60
2022-10-11T15:10:38.000Z,0.80
2022-10-11T15:20:38.000Z,0.40
2022-10-11T15:30:38.000Z,0.80
2022-10-11T15:40:37.000Z,1.30
2022-10-11T15:50:37.000Z,0.60
2022-10-11T16:10:37.000Z,0.60
2022-10-11T16:20:37.000Z,1.00
2022-10-11T16:30:37.000Z,0.80
2022-10-11T16:40:37.000Z,1.90
2022-10-11T16:50:36.000Z,1.60
2022-10-11T17:00:36.000Z,2.30
2022-10-11T17:10:36.000Z,2.20
2022-10-11T17:20:36.000Z,2.80
2022-10-11T17:40:36.000Z,2.70
2022-10-11T17:40:36.000Z,2.70
2022-10-11T17:50:36.000Z,1.80
2022-10-11T18:00:36.000Z,1.50
2022-10-11T18:10:35.000Z,2.10
2022-10-11T18:20:35.000Z,2.40
2022-10-11T18:30:35.000Z,2.00
2022-10-11T18:40:35.000Z,2.30
2022-10-11T18:50:35.000Z,2.20
2022-10-11T19:10:35.000Z,2.40
2022-10-11T19:20:34.000Z,2.40
2022-10-11T19:30:34.000Z,3.70
2022-10-11T19:40:34.000Z,2.70
2022-10-11T19:50:34.000Z,3.40
2022-10-11T20:00:34.000Z,3.40
2022-10-11T20:10:34.000Z,2.90
2022-10-11T20:20:34.000Z,2.60
2022-10-11T20:40:33.000Z,2.70
2022-10-11T20:50:33.000Z,2.60
2022-10-11T21:00:33.000Z,2.80
2022-10-11T21:10:33.000Z,4.00
2022-10-11T21:20:33.000Z,2.90
2022-10-11T21:30:33.000Z,3.00
2022-10-11T21:40:33.000Z,3.30
2022-10-11T21:50:32.000Z,3.00
2022-10-11T22:10:32.000Z,2.60
2022-10-11T22:20:32.000Z,3.00
2022-10-11T22:30:32.000Z,3.20
2022-10-11T22:40:32.000Z,3.10
2022-10-11T22:50:32.000Z,3.90
2022-10-11T23:00:32.000Z,4.60
2022-10-11T23:10:31.000Z,3.10
2022-10-11T23:20:31.000Z,4.00
2022-10-11T23:40:31.000Z,4.10
2022-10-11T23:50:31.000Z,4.10
